sensor_id;sensor_type;location;lat;lon;timestamp;pressure;altitude;pressure_sealevel;temperature;humidity
53868;BME280;41577;47.470;19.080;2023-02-20T00:00:05;100867.56;;;4.63;75.14
53868;BME280;41577;47.470;19.080;2023-02-20T00:00:19;100870.09;;;4.64;75.67
53868;BME280;41577;47.470;19.080;2023-02-20T00:00:33;100874.69;;;4.62;75.32
53868;BME280;41577;47.470;19.080;2023-02-20T00:00:45;100879.00;;;4.63;75.20
53868;BME280;41577;47.470;19.080;2023-02-20T00:00:56;100875.38;;;4.64;74.94
53868;BME280;41577;47.470;19.080;2023-02-20T00:01:07;100861.56;;;4.60;74.77
53868;BME280;41577;47.470;19.080;2023-02-20T00:01:18;100875.38;;;4.64;75.21
53868;BME280;41577;47.470;19.080;2023-02-20T00:01:30;100881.50;;;4.65;75.45
53868;BME280;41577;47.470;19.080;2023-02-20T00:01:45;100866.63;;;4.64;75.87
53868;BME280;41577;47.470;19.080;2023-02-20T00:01:58;100854.50;;;4.61;75.84
53868;BME280;41577;47.470;19.080;2023-02-20T00:02:09;100868.44;;;4.63;75.96
53868;BME280;41577;47.470;19.080;2023-02-20T00:02:20;100874.56;;;4.64;76.04
53868;BME280;41577;47.470;19.080;2023-02-20T00:02:31;100869.38;;;4.62;75.95
53868;BME280;41577;47.470;19.080;2023-02-20T00:02:42;100870.22;;;4.63;76.19
53868;BME280;41577;47.470;19.080;2023-02-20T00:02:53;100876.38;;;4.63;75.93
53868;BME280;41577;47.470;19.080;2023-02-20T00:03:05;100876.38;;;4.63;75.90
53868;BME280;41577;47.470;19.080;2023-02-20T00:03:16;100871.19;;;4.61;76.20
53868;BME280;41577;47.470;19.080;2023-02-20T00:03:27;100872.84;;;4.63;76.48
53868;BME280;41577;47.470;19.080;2023-02-20T00:03:39;100866.88;;;4.60;76.10
53868;BME280;41577;47.470;19.080;2023-02-20T00:03:50;100872.03;;;4.62;75.97
53868;BME280;41577;47.470;19.080;2023-02-20T00:04:00;100877.31;;;4.62;76.15
53868;BME280;41577;47.470;19.080;2023-02-20T00:04:11;100864.09;;;4.62;75.85
53868;BME280;41577;47.470;19.080;2023-02-20T00:04:23;100871.06;;;4.63;75.98
53868;BME280;41577;47.470;19.080;2023-02-20T00:04:34;100868.69;;;4.60;75.98
53868;BME280;41577;47.470;19.080;2023-02-20T00:04:46;100872.03;;;4.62;76.58
53868;BME280;41577;47.470;19.080;2023-02-20T00:04:56;100877.31;;;4.62;76.37
53868;BME280;41577;47.470;19.080;2023-02-20T00:05:07;100865.22;;;4.59;76.41
53868;BME280;41577;47.470;19.080;2023-02-20T00:05:19;100869.50;;;4.60;75.93
53868;BME280;41577;47.470;19.080;2023-02-20T00:05:30;100878.31;;;4.61;76.34
53868;BME280;41577;47.470;19.080;2023-02-20T00:05:41;100880.94;;;4.61;76.39
53868;BME280;41577;47.470;19.080;2023-02-20T00:05:51;100874.81;;;4.60;75.92
53868;BME280;41577;47.470;19.080;2023-02-20T00:06:03;100873.97;;;4.60;75.89
53868;BME280;41577;47.470;19.080;2023-02-20T00:06:14;100879.13;;;4.61;76.10
53868;BME280;41577;47.470;19.080;2023-02-20T00:06:24;100873.13;;;4.59;76.27
53868;BME280;41577;47.470;19.080;2023-02-20T00:06:35;100868.13;;;4.56;75.93
53868;BME280;41577;47.470;19.080;2023-02-20T00:06:46;100875.66;;;4.61;76.20
53868;BME280;41577;47.470;19.080;2023-02-20T00:06:57;100874.81;;;4.60;76.24
53868;BME280;41577;47.470;19.080;2023-02-20T00:07:08;100874.81;;;4.60;76.07
53868;BME280;41577;47.470;19.080;2023-02-20T00:07:19;100868.69;;;4.60;74.90
53868;BME280;41577;47.470;19.080;2023-02-20T00:07:30;100872.31;;;4.59;75.04
53868;BME280;41577;47.470;19.080;2023-02-20T00:07:41;100880.66;;;4.64;74.70
53868;BME280;41577;47.470;19.080;2023-02-20T00:07:52;100876.38;;;4.63;74.40
53868;BME280;41577;47.470;19.080;2023-02-20T00:08:03;100876.38;;;4.63;74.27
53868;BME280;41577;47.470;19.080;2023-02-20T00:08:14;100872.03;;;4.62;74.23
53868;BME280;41577;47.470;19.080;2023-02-20T00:08:26;100881.78;;;4.61;74.17
53868;BME280;41577;47.470;19.080;2023-02-20T00:08:37;100872.03;;;4.62;74.33
53868;BME280;41577;47.470;19.080;2023-02-20T00:08:48;100882.63;;;4.62;74.57
53868;BME280;41577;47.470;19.080;2023-02-20T00:08:59;100875.50;;;4.63;74.17
53868;BME280;41577;47.470;19.080;2023-02-20T00:09:10;100880.78;;;4.63;74.60
53868;BME280;41577;47.470;19.080;2023-02-20T00:09:21;100884.31;;;4.63;74.12
53868;BME280;41577;47.470;19.080;2023-02-20T00:09:32;100877.31;;;4.62;74.36
53868;BME280;41577;47.470;19.080;2023-02-20T00:09:44;100883.44;;;4.63;74.38
53868;BME280;41577;47.470;19.080;2023-02-20T00:09:55;100879.97;;;4.62;74.58
53868;BME280;41577;47.470;19.080;2023-02-20T00:10:06;100880.94;;;4.61;74.42
53868;BME280;41577;47.470;19.080;2023-02-20T00:10:18;100870.50;;;4.59;74.36
53868;BME280;41577;47.470;19.080;2023-02-20T00:10:29;100879.97;;;4.62;74.05
53868;BME280;41577;47.470;19.080;2023-02-20T00:10:40;100882.75;;;4.60;74.64
53868;BME280;41577;47.470;19.080;2023-02-20T00:10:51;100877.84;;;4.56;75.04
53868;BME280;41577;47.470;19.080;2023-02-20T00:11:02;100879.25;;;4.60;74.98
53868;BME280;41577;47.470;19.080;2023-02-20T00:11:13;100879.25;;;4.60;75.23
53868;BME280;41577;47.470;19.080;2023-02-20T00:11:25;100884.44;;;4.61;74.70
53868;BME280;41577;47.470;19.080;2023-02-20T00:11:35;100886.25;;;4.61;75.35
53868;BME280;41577;47.470;19.080;2023-02-20T00:11:47;100884.56;;;4.60;75.27
53868;BME280;41577;47.470;19.080;2023-02-20T00:11:58;100892.50;;;4.60;75.77
53868;BME280;41577;47.470;19.080;2023-02-20T00:12:09;100888.19;;;4.59;75.39
53868;BME280;41577;47.470;19.080;2023-02-20T00:12:20;100889.84;;;4.60;74.88
53868;BME280;41577;47.470;19.080;2023-02-20T00:12:31;100891.66;;;4.59;74.77
53868;BME280;41577;47.470;19.080;2023-02-20T00:12:42;100891.66;;;4.59;74.96
53868;BME280;41577;47.470;19.080;2023-02-20T00:12:53;100900.41;;;4.60;74.67
53868;BME280;41577;47.470;19.080;2023-02-20T00:13:05;100891.66;;;4.59;74.13
53868;BME280;41577;47.470;19.080;2023-02-20T00:13:17;100888.19;;;4.59;73.88
53868;BME280;41577;47.470;19.080;2023-02-20T00:13:28;100884.00;;;4.56;74.30
53868;BME280;41577;47.470;19.080;2023-02-20T00:13:44;100896.13;;;4.59;74.18
53868;BME280;41577;47.470;19.080;2023-02-20T00:13:55;100883.72;;;4.59;74.54
53868;BME280;41577;47.470;19.080;2023-02-20T00:14:06;100885.38;;;4.60;74.88
53868;BME280;41577;47.470;19.080;2023-02-20T00:14:17;100883.84;;;4.58;74.90
53868;BME280;41577;47.470;19.080;2023-02-20T00:14:28;100885.53;;;4.59;74.69
53868;BME280;41577;47.470;19.080;2023-02-20T00:14:39;100882.91;;;4.59;75.06
53868;BME280;41577;47.470;19.080;2023-02-20T00:14:50;100889.00;;;4.59;74.91
53868;BME280;41577;47.470;19.080;2023-02-20T00:15:02;100880.38;;;4.57;74.56
53868;BME280;41577;47.470;19.080;2023-02-20T00:15:14;100879.53;;;4.57;74.77
53868;BME280;41577;47.470;19.080;2023-02-20T00:15:25;100888.31;;;4.57;74.88
53868;BME280;41577;47.470;19.080;2023-02-20T00:15:36;100888.31;;;4.57;74.94
53868;BME280;41577;47.470;19.080;2023-02-20T00:15:47;100881.47;;;4.55;74.84
53868;BME280;41577;47.470;19.080;2023-02-20T00:15:58;100895.41;;;4.57;74.66
53868;BME280;41577;47.470;19.080;2023-02-20T00:16:09;100884.00;;;4.56;74.91
53868;BME280;41577;47.470;19.080;2023-02-20T00:16:20;100879.53;;;4.57;74.82
53868;BME280;41577;47.470;19.080;2023-02-20T00:16:31;100892.66;;;4.58;74.42
53868;BME280;41577;47.470;19.080;2023-02-20T00:16:45;100886.06;;;4.53;74.52
53868;BME280;41577;47.470;19.080;2023-02-20T00:16:56;100886.66;;;4.56;74.34
53868;BME280;41577;47.470;19.080;2023-02-20T00:17:07;100896.25;;;4.57;74.37
53868;BME280;41577;47.470;19.080;2023-02-20T00:17:18;100886.66;;;4.56;74.50
53868;BME280;41577;47.470;19.080;2023-02-20T00:17:30;100878.72;;;4.56;74.37
53868;BME280;41577;47.470;19.080;2023-02-20T00:17:41;100889.13;;;4.58;74.43
53868;BME280;41577;47.470;19.080;2023-02-20T00:17:52;100887.59;;;4.55;74.28
53868;BME280;41577;47.470;19.080;2023-02-20T00:18:04;100884.00;;;4.56;74.66
53868;BME280;41577;47.470;19.080;2023-02-20T00:18:15;100888.31;;;4.57;74.86
53868;BME280;41577;47.470;19.080;2023-02-20T00:18:26;100884.84;;;4.57;74.51
53868;BME280;41577;47.470;19.080;2023-02-20T00:18:37;100885.66;;;4.57;74.47
53868;BME280;41577;47.470;19.080;2023-02-20T00:18:48;100893.59;;;4.57;74.46
53868;BME280;41577;47.470;19.080;2023-02-20T00:18:59;100881.75;;;4.52;74.71
53868;BME280;41577;47.470;19.080;2023-02-20T00:19:10;100883.16;;;4.56;74.22
53868;BME280;41577;47.470;19.080;2023-02-20T00:19:21;100893.59;;;4.57;74.73
53868;BME280;41577;47.470;19.080;2023-02-20T00:19:32;100887.47;;;4.57;74.35
53868;BME280;41577;47.470;19.080;2023-02-20T00:19:44;100882.19;;;4.57;74.73
53868;BME280;41577;47.470;19.080;2023-02-20T00:19:55;100884.00;;;4.56;74.63
53868;BME280;41577;47.470;19.080;2023-02-20T00:20:07;100892.91;;;4.55;74.56
53868;BME280;41577;47.470;19.080;2023-02-20T00:20:20;100882.47;;;4.54;74.28
53868;BME280;41577;47.470;19.080;2023-02-20T00:20:33;100878.97;;;4.53;74.42
53868;BME280;41577;47.470;19.080;2023-02-20T00:20:44;100886.78;;;4.55;73.97
53868;BME280;41577;47.470;19.080;2023-02-20T00:20:55;100881.47;;;4.55;74.56
53868;BME280;41577;47.470;19.080;2023-02-20T00:21:07;100884.13;;;4.55;74.13
53868;BME280;41577;47.470;19.080;2023-02-20T00:21:17;100883.28;;;4.54;74.04
53868;BME280;41577;47.470;19.080;2023-02-20T00:21:28;100888.72;;;4.53;73.96
53868;BME280;41577;47.470;19.080;2023-02-20T00:21:44;100887.59;;;4.55;74.33
53868;BME280;41577;47.470;19.080;2023-02-20T00:21:55;100885.13;;;4.54;74.36
53868;BME280;41577;47.470;19.080;2023-02-20T00:22:06;100889.41;;;4.55;73.84
53868;BME280;41577;47.470;19.080;2023-02-20T00:22:17;100884.13;;;4.55;74.13
53868;BME280;41577;47.470;19.080;2023-02-20T00:22:30;100880.50;;;4.56;74.31
53868;BME280;41577;47.470;19.080;2023-02-20T00:22:41;100889.41;;;4.55;73.66
53868;BME280;41577;47.470;19.080;2023-02-20T00:22:53;100878.25;;;4.51;73.38
53868;BME280;41577;47.470;19.080;2023-02-20T00:23:08;100883.69;;;4.50;73.68
53868;BME280;41577;47.470;19.080;2023-02-20T00:23:19;100885.78;;;4.56;73.29
53868;BME280;41577;47.470;19.080;2023-02-20T00:23:31;100894.59;;;4.56;73.75
53868;BME280;41577;47.470;19.080;2023-02-20T00:23:42;100881.59;;;4.53;73.90
53868;BME280;41577;47.470;19.080;2023-02-20T00:23:53;100896.25;;;4.57;74.08
53868;BME280;41577;47.470;19.080;2023-02-20T00:24:04;100883.16;;;4.56;73.62
53868;BME280;41577;47.470;19.080;2023-02-20T00:24:15;100887.47;;;4.57;73.79
53868;BME280;41577;47.470;19.080;2023-02-20T00:24:26;100878.84;;;4.55;73.67
53868;BME280;41577;47.470;19.080;2023-02-20T00:24:37;100884.00;;;4.56;73.79
53868;BME280;41577;47.470;19.080;2023-02-20T00:24:48;100886.66;;;4.56;73.94
53868;BME280;41577;47.470;19.080;2023-02-20T00:24:59;100887.47;;;4.57;74.11
53868;BME280;41577;47.470;19.080;2023-02-20T00:25:10;100894.59;;;4.56;74.19
53868;BME280;41577;47.470;19.080;2023-02-20T00:25:21;100892.91;;;4.55;74.18
53868;BME280;41577;47.470;19.080;2023-02-20T00:25:32;100883.16;;;4.56;74.08
53868;BME280;41577;47.470;19.080;2023-02-20T00:25:44;100884.97;;;4.55;73.98
53868;BME280;41577;47.470;19.080;2023-02-20T00:25:56;100885.78;;;4.56;73.76
53868;BME280;41577;47.470;19.080;2023-02-20T00:26:08;100878.41;;;4.50;73.95
53868;BME280;41577;47.470;19.080;2023-02-20T00:26:19;100880.66;;;4.54;74.18
53868;BME280;41577;47.470;19.080;2023-02-20T00:26:31;100882.47;;;4.54;74.22
53868;BME280;41577;47.470;19.080;2023-02-20T00:26:45;100894.72;;;4.55;73.88
53868;BME280;41577;47.470;19.080;2023-02-20T00:26:56;100897.34;;;4.55;74.43
53868;BME280;41577;47.470;19.080;2023-02-20T00:27:07;100880.66;;;4.54;74.12
53868;BME280;41577;47.470;19.080;2023-02-20T00:27:18;100881.59;;;4.53;74.27
53868;BME280;41577;47.470;19.080;2023-02-20T00:27:30;100885.25;;;4.52;74.65
53868;BME280;41577;47.470;19.080;2023-02-20T00:27:41;100888.59;;;4.54;74.95
53868;BME280;41577;47.470;19.080;2023-02-20T00:27:52;100883.53;;;4.51;74.55
53868;BME280;41577;47.470;19.080;2023-02-20T00:28:05;100886.19;;;4.51;73.90
53868;BME280;41577;47.470;19.080;2023-02-20T00:28:16;100890.53;;;4.52;74.34
53868;BME280;41577;47.470;19.080;2023-02-20T00:28:27;100886.06;;;4.53;74.08
53868;BME280;41577;47.470;19.080;2023-02-20T00:28:41;100887.06;;;4.52;74.73
53868;BME280;41577;47.470;19.080;2023-02-20T00:28:52;100890.53;;;4.52;74.88
53868;BME280;41577;47.470;19.080;2023-02-20T00:29:03;100887.19;;;4.50;74.37
53868;BME280;41577;47.470;19.080;2023-02-20T00:29:15;100888.00;;;4.51;74.46
53868;BME280;41577;47.470;19.080;2023-02-20T00:29:27;100893.28;;;4.51;73.77
53868;BME280;41577;47.470;19.080;2023-02-20T00:29:37;100887.19;;;4.50;73.99
53868;BME280;41577;47.470;19.080;2023-02-20T00:29:48;100893.19;;;4.52;73.92
53868;BME280;41577;47.470;19.080;2023-02-20T00:29:59;100891.34;;;4.53;74.18
53868;BME280;41577;47.470;19.080;2023-02-20T00:30:13;100886.19;;;4.51;74.00
53868;BME280;41577;47.470;19.080;2023-02-20T00:30:25;100885.25;;;4.52;74.07
53868;BME280;41577;47.470;19.080;2023-02-20T00:30:35;100892.19;;;4.53;73.91
53868;BME280;41577;47.470;19.080;2023-02-20T00:30:47;100888.84;;;4.51;74.00
53868;BME280;41577;47.470;19.080;2023-02-20T00:30:58;100884.41;;;4.52;73.96
53868;BME280;41577;47.470;19.080;2023-02-20T00:31:12;100894.00;;;4.53;73.79
53868;BME280;41577;47.470;19.080;2023-02-20T00:31:23;100887.06;;;4.52;73.90
53868;BME280;41577;47.470;19.080;2023-02-20T00:31:34;100887.06;;;4.52;73.62
53868;BME280;41577;47.470;19.080;2023-02-20T00:31:50;100885.38;;;4.51;73.58
53868;BME280;41577;47.470;19.080;2023-02-20T00:32:01;100894.00;;;4.53;74.05
53868;BME280;41577;47.470;19.080;2023-02-20T00:32:12;100884.41;;;4.52;73.53
53868;BME280;41577;47.470;19.080;2023-02-20T00:32:23;100884.53;;;4.50;73.83
53868;BME280;41577;47.470;19.080;2023-02-20T00:32:34;100894.00;;;4.53;73.45
53868;BME280;41577;47.470;19.080;2023-02-20T00:32:45;100895.00;;;4.52;73.70
53868;BME280;41577;47.470;19.080;2023-02-20T00:32:57;100897.63;;;4.52;73.26
53868;BME280;41577;47.470;19.080;2023-02-20T00:33:08;100895.13;;;4.50;72.82
53868;BME280;41577;47.470;19.080;2023-02-20T00:33:27;100896.66;;;4.53;72.61
53868;BME280;41577;47.470;19.080;2023-02-20T00:33:38;100893.19;;;4.52;72.50
53868;BME280;41577;47.470;19.080;2023-02-20T00:33:49;100891.34;;;4.53;72.80
53868;BME280;41577;47.470;19.080;2023-02-20T00:34:00;100899.16;;;4.54;72.90
53868;BME280;41577;47.470;19.080;2023-02-20T00:34:11;100897.63;;;4.52;73.19
53868;BME280;41577;47.470;19.080;2023-02-20T00:34:23;100895.69;;;4.54;72.76
53868;BME280;41577;47.470;19.080;2023-02-20T00:34:36;100904.59;;;4.53;73.16
53868;BME280;41577;47.470;19.080;2023-02-20T00:34:46;100898.34;;;4.54;73.06
53868;BME280;41577;47.470;19.080;2023-02-20T00:34:58;100899.28;;;4.53;73.48
53868;BME280;41577;47.470;19.080;2023-02-20T00:35:09;100897.63;;;4.52;73.35
53868;BME280;41577;47.470;19.080;2023-02-20T00:35:20;100902.91;;;4.52;73.04
53868;BME280;41577;47.470;19.080;2023-02-20T00:35:32;100904.47;;;4.54;73.19
53868;BME280;41577;47.470;19.080;2023-02-20T00:35:43;100899.16;;;4.54;73.42
53868;BME280;41577;47.470;19.080;2023-02-20T00:35:54;100896.53;;;4.54;72.92
53868;BME280;41577;47.470;19.080;2023-02-20T00:36:06;100900.00;;;4.55;73.25
53868;BME280;41577;47.470;19.080;2023-02-20T00:36:19;100902.75;;;4.53;73.08
53868;BME280;41577;47.470;19.080;2023-02-20T00:36:30;100908.06;;;4.53;73.23
53868;BME280;41577;47.470;19.080;2023-02-20T00:36:41;100902.75;;;4.53;73.75
53868;BME280;41577;47.470;19.080;2023-02-20T00:36:53;100905.56;;;4.52;73.68
53868;BME280;41577;47.470;19.080;2023-02-20T00:37:04;100901.50;;;4.48;73.79
53868;BME280;41577;47.470;19.080;2023-02-20T00:37:15;100908.06;;;4.53;73.50
53868;BME280;41577;47.470;19.080;2023-02-20T00:37:27;100913.34;;;4.53;73.39
53868;BME280;41577;47.470;19.080;2023-02-20T00:37:38;100904.59;;;4.53;73.37
53868;BME280;41577;47.470;19.080;2023-02-20T00:37:50;100909.03;;;4.52;73.39
53868;BME280;41577;47.470;19.080;2023-02-20T00:38:01;100909.03;;;4.52;73.02
53868;BME280;41577;47.470;19.080;2023-02-20T00:38:13;100909.03;;;4.52;72.83
53868;BME280;41577;47.470;19.080;2023-02-20T00:38:24;100906.41;;;4.52;73.07
53868;BME280;41577;47.470;19.080;2023-02-20T00:38:35;100909.03;;;4.52;73.42
53868;BME280;41577;47.470;19.080;2023-02-20T00:38:45;100908.22;;;4.52;73.46
53868;BME280;41577;47.470;19.080;2023-02-20T00:38:56;100914.34;;;4.52;73.39
53868;BME280;41577;47.470;19.080;2023-02-20T00:39:07;100907.09;;;4.54;73.02
53868;BME280;41577;47.470;19.080;2023-02-20T00:39:18;100914.22;;;4.54;73.09
53868;BME280;41577;47.470;19.080;2023-02-20T00:39:30;100912.53;;;4.53;73.10
53868;BME280;41577;47.470;19.080;2023-02-20T00:39:41;100905.56;;;4.52;73.56
53868;BME280;41577;47.470;19.080;2023-02-20T00:39:53;100909.75;;;4.54;73.13
53868;BME280;41577;47.470;19.080;2023-02-20T00:40:05;100915.03;;;4.54;73.34
53868;BME280;41577;47.470;19.080;2023-02-20T00:40:18;100913.34;;;4.53;73.33
53868;BME280;41577;47.470;19.080;2023-02-20T00:40:30;100911.81;;;4.51;73.17
53868;BME280;41577;47.470;19.080;2023-02-20T00:40:41;100920.31;;;4.54;72.86
53868;BME280;41577;47.470;19.080;2023-02-20T00:40:52;100914.34;;;4.52;72.83
53868;BME280;41577;47.470;19.080;2023-02-20T00:41:04;100920.44;;;4.53;73.30
53868;BME280;41577;47.470;19.080;2023-02-20T00:41:14;100904.59;;;4.53;73.29
53868;BME280;41577;47.470;19.080;2023-02-20T00:41:26;100911.69;;;4.52;72.94
53868;BME280;41577;47.470;19.080;2023-02-20T00:41:37;100917.81;;;4.53;72.50
53868;BME280;41577;47.470;19.080;2023-02-20T00:41:48;100915.03;;;4.54;73.05
53868;BME280;41577;47.470;19.080;2023-02-20T00:41:59;100921.16;;;4.55;73.49
53868;BME280;41577;47.470;19.080;2023-02-20T00:42:10;100907.34;;;4.51;72.78
53868;BME280;41577;47.470;19.080;2023-02-20T00:42:22;100918.63;;;4.53;72.88
53868;BME280;41577;47.470;19.080;2023-02-20T00:42:33;100921.56;;;4.50;72.66
53868;BME280;41577;47.470;19.080;2023-02-20T00:42:44;100916.97;;;4.52;72.68
53868;BME280;41577;47.470;19.080;2023-02-20T00:42:56;100915.44;;;4.50;72.84
53868;BME280;41577;47.470;19.080;2023-02-20T00:43:08;100917.94;;;4.51;73.10
53868;BME280;41577;47.470;19.080;2023-02-20T00:43:19;100915.28;;;4.51;73.46
53868;BME280;41577;47.470;19.080;2023-02-20T00:43:30;100919.75;;;4.51;73.06
53868;BME280;41577;47.470;19.080;2023-02-20T00:43:41;100914.56;;;4.49;73.05
53868;BME280;41577;47.470;19.080;2023-02-20T00:43:52;100917.09;;;4.51;73.43
53868;BME280;41577;47.470;19.080;2023-02-20T00:44:03;100917.94;;;4.51;72.50
53868;BME280;41577;47.470;19.080;2023-02-20T00:44:15;100918.91;;;4.50;73.06
53868;BME280;41577;47.470;19.080;2023-02-20T00:44:26;100917.94;;;4.51;73.06
53868;BME280;41577;47.470;19.080;2023-02-20T00:44:37;100910.97;;;4.50;73.25
53868;BME280;41577;47.470;19.080;2023-02-20T00:44:48;100911.81;;;4.51;72.91
53868;BME280;41577;47.470;19.080;2023-02-20T00:44:59;100912.63;;;4.51;72.59
53868;BME280;41577;47.470;19.080;2023-02-20T00:45:12;100919.75;;;4.51;72.89
53868;BME280;41577;47.470;19.080;2023-02-20T00:45:23;100920.03;;;4.48;72.96
53868;BME280;41577;47.470;19.080;2023-02-20T00:45:34;100919.88;;;4.49;72.94
53868;BME280;41577;47.470;19.080;2023-02-20T00:45:45;100926.03;;;4.50;73.11
53868;BME280;41577;47.470;19.080;2023-02-20T00:45:56;100922.38;;;4.51;73.31
53868;BME280;41577;47.470;19.080;2023-02-20T00:46:10;100926.03;;;4.50;73.17
53868;BME280;41577;47.470;19.080;2023-02-20T00:46:21;100924.31;;;4.49;72.75
53868;BME280;41577;47.470;19.080;2023-02-20T00:46:33;100917.78;;;4.43;73.28
53868;BME280;41577;47.470;19.080;2023-02-20T00:46:44;100917.38;;;4.48;73.03
53868;BME280;41577;47.470;19.080;2023-02-20T00:46:57;100920.84;;;4.48;73.24
53868;BME280;41577;47.470;19.080;2023-02-20T00:47:07;100924.31;;;4.49;73.25
53868;BME280;41577;47.470;19.080;2023-02-20T00:47:19;100922.66;;;4.48;72.84
53868;BME280;41577;47.470;19.080;2023-02-20T00:47:30;100923.50;;;4.48;72.91
53868;BME280;41577;47.470;19.080;2023-02-20T00:47:42;100925.31;;;4.48;73.33
53868;BME280;41577;47.470;19.080;2023-02-20T00:47:53;100919.03;;;4.49;73.17
53868;BME280;41577;47.470;19.080;2023-02-20T00:48:04;100915.69;;;4.47;72.71
53868;BME280;41577;47.470;19.080;2023-02-20T00:48:15;100923.63;;;4.47;72.82
53868;BME280;41577;47.470;19.080;2023-02-20T00:48:26;100921.69;;;4.49;72.94
53868;BME280;41577;47.470;19.080;2023-02-20T00:48:57;100927.81;;;4.49;73.11
53868;BME280;41577;47.470;19.080;2023-02-20T00:49:27;100927.97;;;4.48;73.28
53868;BME280;41577;47.470;19.080;2023-02-20T00:49:38;100926.97;;;4.49;73.65
53868;BME280;41577;47.470;19.080;2023-02-20T00:49:57;100927.97;;;4.48;73.44
53868;BME280;41577;47.470;19.080;2023-02-20T00:50:09;100929.63;;;4.49;73.23
53868;BME280;41577;47.470;19.080;2023-02-20T00:50:24;100923.50;;;4.48;73.36
53868;BME280;41577;47.470;19.080;2023-02-20T00:50:35;100919.31;;;4.46;73.20
53868;BME280;41577;47.470;19.080;2023-02-20T00:50:48;100926.97;;;4.49;73.25
53868;BME280;41577;47.470;19.080;2023-02-20T00:50:59;100924.47;;;4.47;72.70
53868;BME280;41577;47.470;19.080;2023-02-20T00:51:10;100929.78;;;4.47;72.90
53868;BME280;41577;47.470;19.080;2023-02-20T00:51:21;100938.53;;;4.48;72.47
53868;BME280;41577;47.470;19.080;2023-02-20T00:51:31;100930.72;;;4.46;72.62
53868;BME280;41577;47.470;19.080;2023-02-20T00:51:42;100932.41;;;4.47;72.75
53868;BME280;41577;47.470;19.080;2023-02-20T00:51:53;100926.25;;;4.47;72.81
53868;BME280;41577;47.470;19.080;2023-02-20T00:52:06;100930.72;;;4.46;73.20
53868;BME280;41577;47.470;19.080;2023-02-20T00:52:16;100933.25;;;4.48;72.96
53868;BME280;41577;47.470;19.080;2023-02-20T00:52:28;100935.88;;;4.48;72.99
53868;BME280;41577;47.470;19.080;2023-02-20T00:52:39;100935.06;;;4.47;73.17
53868;BME280;41577;47.470;19.080;2023-02-20T00:52:51;100932.41;;;4.47;73.69
53868;BME280;41577;47.470;19.080;2023-02-20T00:53:05;100928.91;;;4.47;73.66
53868;BME280;41577;47.470;19.080;2023-02-20T00:53:16;100932.41;;;4.47;73.72
53868;BME280;41577;47.470;19.080;2023-02-20T00:53:28;100929.78;;;4.47;72.71
53868;BME280;41577;47.470;19.080;2023-02-20T00:53:39;100934.06;;;4.48;72.42
53868;BME280;41577;47.470;19.080;2023-02-20T00:53:49;100935.06;;;4.47;72.54
53868;BME280;41577;47.470;19.080;2023-02-20T00:54:01;100934.19;;;4.47;72.49
53868;BME280;41577;47.470;19.080;2023-02-20T00:54:11;100931.56;;;4.47;72.65
53868;BME280;41577;47.470;19.080;2023-02-20T00:54:22;100938.66;;;4.46;73.10
53868;BME280;41577;47.470;19.080;2023-02-20T00:54:33;100933.50;;;4.45;73.21
53868;BME280;41577;47.470;19.080;2023-02-20T00:54:45;100934.34;;;4.45;72.68
53868;BME280;41577;47.470;19.080;2023-02-20T00:54:56;100940.59;;;4.44;73.03
53868;BME280;41577;47.470;19.080;2023-02-20T00:55:07;100934.34;;;4.45;72.89
53868;BME280;41577;47.470;19.080;2023-02-20T00:55:18;100937.00;;;4.45;72.84
53868;BME280;41577;47.470;19.080;2023-02-20T00:55:30;100938.78;;;4.45;73.08
53868;BME280;41577;47.470;19.080;2023-02-20T00:55:40;100942.13;;;4.47;72.72
53868;BME280;41577;47.470;19.080;2023-02-20T00:55:51;100937.00;;;4.45;72.66
53868;BME280;41577;47.470;19.080;2023-02-20T00:56:04;100934.47;;;4.44;72.31
53868;BME280;41577;47.470;19.080;2023-02-20T00:56:17;100937.13;;;4.44;72.58
53868;BME280;41577;47.470;19.080;2023-02-20T00:56:28;100933.50;;;4.45;72.85
53868;BME280;41577;47.470;19.080;2023-02-20T00:56:40;100937.94;;;4.44;72.71
53868;BME280;41577;47.470;19.080;2023-02-20T00:56:51;100942.28;;;4.45;73.19
53868;BME280;41577;47.470;19.080;2023-02-20T00:57:03;100939.75;;;4.44;73.15
53868;BME280;41577;47.470;19.080;2023-02-20T00:57:14;100933.50;;;4.45;73.04
53868;BME280;41577;47.470;19.080;2023-02-20T00:57:24;100938.78;;;4.45;72.55
53868;BME280;41577;47.470;19.080;2023-02-20T00:57:35;100937.94;;;4.44;72.23
53868;BME280;41577;47.470;19.080;2023-02-20T00:57:47;100942.28;;;4.45;72.66
53868;BME280;41577;47.470;19.080;2023-02-20T00:57:58;100937.13;;;4.44;72.44
53868;BME280;41577;47.470;19.080;2023-02-20T00:58:11;100940.47;;;4.46;72.83
53868;BME280;41577;47.470;19.080;2023-02-20T00:58:21;100941.31;;;4.46;72.23
53868;BME280;41577;47.470;19.080;2023-02-20T00:58:34;100942.28;;;4.45;72.46
53868;BME280;41577;47.470;19.080;2023-02-20T00:58:45;100929.91;;;4.46;72.20
53868;BME280;41577;47.470;19.080;2023-02-20T00:58:55;100937.13;;;4.44;72.70
53868;BME280;41577;47.470;19.080;2023-02-20T00:59:06;100929.47;;;4.40;71.99
53868;BME280;41577;47.470;19.080;2023-02-20T00:59:18;100936.13;;;4.45;72.40
53868;BME280;41577;47.470;19.080;2023-02-20T00:59:29;100934.75;;;4.40;72.47
53868;BME280;41577;47.470;19.080;2023-02-20T00:59:40;100938.78;;;4.45;72.63
53868;BME280;41577;47.470;19.080;2023-02-20T00:59:51;100940.59;;;4.44;72.46
53868;BME280;41577;47.470;19.080;2023-02-20T01:00:03;100939.63;;;4.45;72.59
53868;BME280;41577;47.470;19.080;2023-02-20T01:00:20;100944.94;;;4.45;72.54
53868;BME280;41577;47.470;19.080;2023-02-20T01:00:31;100930.00;;;4.44;72.69
53868;BME280;41577;47.470;19.080;2023-02-20T01:00:41;100941.44;;;4.45;72.84